createdAt,value
2018-10-12T00:01:30.510Z,100.00
2018-10-12T00:03:59.014Z,100.00
2018-10-12T00:06:27.532Z,100.00
2018-10-12T00:08:56.063Z,100.00
2018-10-12T00:11:24.570Z,100.00
2018-10-12T00:13:53.104Z,100.00
2018-10-12T00:16:21.607Z,99.30
2018-10-12T00:18:50.139Z,98.80
2018-10-12T00:21:18.657Z,99.23
2018-10-12T00:23:47.189Z,99.34
2018-10-12T00:26:15.710Z,99.63
2018-10-12T00:28:44.244Z,99.51
2018-10-12T00:31:12.757Z,99.46
2018-10-12T00:33:41.305Z,99.31
2018-10-12T00:36:09.834Z,99.38
2018-10-12T00:38:38.386Z,99.33
2018-10-12T00:41:07.371Z,99.66
2018-10-12T00:43:35.899Z,99.82
2018-10-12T00:46:04.422Z,99.87
2018-10-12T00:48:32.959Z,100.00
2018-10-12T00:51:01.459Z,99.89
2018-10-12T00:53:29.982Z,99.98
2018-10-12T00:55:58.485Z,99.98
2018-10-12T00:58:27.022Z,100.00
2018-10-12T01:00:55.525Z,99.91
2018-10-12T01:03:24.061Z,100.00
2018-10-12T01:05:52.603Z,100.00
2018-10-12T01:08:21.174Z,100.00
2018-10-12T01:10:49.684Z,99.39
2018-10-12T01:13:18.246Z,99.25
2018-10-12T01:15:46.756Z,99.82
2018-10-12T01:18:15.297Z,100.00
2018-10-12T01:20:43.838Z,100.00
2018-10-12T01:23:12.410Z,100.00
2018-10-12T01:25:40.934Z,100.00
2018-10-12T01:28:09.477Z,99.23
2018-10-12T01:30:38.023Z,99.04
2018-10-12T01:33:07.165Z,98.68
2018-10-12T01:35:36.541Z,98.28
2018-10-12T01:38:05.100Z,98.19
2018-10-12T01:40:33.850Z,98.25
2018-10-12T01:43:02.777Z,98.57
2018-10-12T01:45:31.565Z,99.66
2018-10-12T01:48:00.127Z,100.00
2018-10-12T01:50:28.666Z,100.00
2018-10-12T01:52:57.178Z,100.00
2018-10-12T01:55:25.752Z,100.00
2018-10-12T01:57:54.270Z,100.00
2018-10-12T02:00:22.863Z,99.72
2018-10-12T02:02:51.382Z,99.54
2018-10-12T02:05:19.925Z,99.64
2018-10-12T02:07:48.425Z,99.11
2018-10-12T02:10:24.027Z,99.06
2018-10-12T02:12:52.535Z,99.14
2018-10-12T02:15:21.114Z,99.81
2018-10-12T02:17:49.640Z,100.00
2018-10-12T02:20:18.193Z,99.74
2018-10-12T02:22:46.693Z,99.05
2018-10-12T02:25:15.222Z,98.21
2018-10-12T02:27:43.756Z,98.35
2018-10-12T02:30:12.295Z,98.99
2018-10-12T02:32:40.812Z,99.17
2018-10-12T02:35:09.403Z,99.24
2018-10-12T02:37:37.938Z,99.39
2018-10-12T02:40:06.505Z,99.36
2018-10-12T02:42:35.018Z,99.38
2018-10-12T02:45:03.580Z,99.62
2018-10-12T02:47:32.082Z,99.86
2018-10-12T02:50:00.621Z,100.00
2018-10-12T02:52:29.126Z,100.00
2018-10-12T02:54:57.665Z,100.00
2018-10-12T02:57:26.169Z,100.00
2018-10-12T02:59:54.708Z,100.00
2018-10-12T03:02:23.217Z,100.00
2018-10-12T03:04:51.774Z,100.00
2018-10-12T03:07:20.284Z,100.00
2018-10-12T03:09:48.845Z,99.98
2018-10-12T03:12:17.368Z,99.74
2018-10-12T03:14:45.918Z,99.57
2018-10-12T03:17:14.443Z,99.85
2018-10-12T03:19:43.025Z,100.00
2018-10-12T03:22:11.897Z,100.00
2018-10-12T03:24:40.427Z,99.57
2018-10-12T03:27:08.982Z,99.18
2018-10-12T03:29:37.538Z,99.30
2018-10-12T03:32:06.294Z,99.52
2018-10-12T03:34:34.981Z,99.34
2018-10-12T03:37:03.540Z,99.82
2018-10-12T03:39:32.094Z,100.00
2018-10-12T03:42:00.638Z,100.00
2018-10-12T03:44:29.189Z,100.00
2018-10-12T03:46:57.735Z,100.00
2018-10-12T03:49:26.306Z,100.00
2018-10-12T03:51:54.858Z,100.00
2018-10-12T03:54:23.414Z,100.00
2018-10-12T03:56:51.925Z,100.00
2018-10-12T03:59:20.461Z,100.00
2018-10-12T04:01:48.969Z,100.00
2018-10-12T04:04:17.503Z,99.73
2018-10-12T04:06:46.017Z,99.81
2018-10-12T04:09:14.565Z,100.00
2018-10-12T04:11:43.079Z,100.00
2018-10-12T04:14:11.618Z,100.00
2018-10-12T04:16:40.122Z,100.00
2018-10-12T04:19:09.018Z,100.00
2018-10-12T04:21:37.526Z,100.00
2018-10-12T04:24:06.047Z,100.00
2018-10-12T04:26:34.587Z,100.00
2018-10-12T04:29:03.093Z,100.00
2018-10-12T04:31:31.626Z,100.00
2018-10-12T04:34:00.159Z,99.82
2018-10-12T04:36:28.733Z,100.00
2018-10-12T04:39:08.501Z,100.00
2018-10-12T04:41:37.057Z,100.00
2018-10-12T04:44:05.569Z,100.00
2018-10-12T04:46:43.547Z,100.00
2018-10-12T04:49:13.864Z,100.00
2018-10-12T04:51:56.919Z,100.00
2018-10-12T04:54:25.967Z,100.00
2018-10-12T04:56:54.527Z,100.00
2018-10-12T04:59:23.095Z,100.00
2018-10-12T05:01:51.693Z,100.00
2018-10-12T05:04:20.340Z,100.00
2018-10-12T05:06:48.911Z,100.00
2018-10-12T05:09:17.437Z,100.00
2018-10-12T05:11:46.032Z,100.00
2018-10-12T05:14:14.569Z,100.00
2018-10-12T05:16:43.114Z,100.00
2018-10-12T05:19:11.633Z,100.00
2018-10-12T05:21:40.395Z,100.00
2018-10-12T05:24:08.938Z,100.00
2018-10-12T05:26:37.501Z,100.00
2018-10-12T05:29:06.125Z,100.00
2018-10-12T05:31:34.670Z,100.00
2018-10-12T05:34:03.238Z,100.00
2018-10-12T05:36:31.760Z,99.60
2018-10-12T05:39:00.294Z,99.45
2018-10-12T05:41:28.806Z,99.66
2018-10-12T05:43:57.335Z,100.00
2018-10-12T05:46:25.853Z,100.00
2018-10-12T05:49:05.542Z,100.00
2018-10-12T05:51:34.080Z,100.00
2018-10-12T05:54:02.642Z,100.00
2018-10-12T05:56:33.134Z,100.00
2018-10-12T05:59:01.871Z,99.74
2018-10-12T06:01:30.534Z,99.89
2018-10-12T06:03:59.282Z,99.65
2018-10-12T06:06:28.065Z,100.00
2018-10-12T06:08:56.606Z,100.00
2018-10-12T06:11:25.189Z,99.48
2018-10-12T06:13:53.826Z,99.27
2018-10-12T06:16:22.698Z,99.62
2018-10-12T06:18:51.386Z,100.00
2018-10-12T06:21:19.898Z,100.00
2018-10-12T06:23:48.429Z,100.00
2018-10-12T06:26:16.963Z,98.53
2018-10-12T06:28:45.509Z,97.51
2018-10-12T06:31:14.017Z,97.01
2018-10-12T06:33:42.523Z,96.54
2018-10-12T06:36:11.086Z,96.24
2018-10-12T06:38:39.681Z,95.07
2018-10-12T06:41:08.276Z,94.54
2018-10-12T06:43:36.781Z,94.37
2018-10-12T06:46:05.345Z,93.99
2018-10-12T06:48:33.879Z,92.86
2018-10-12T06:51:02.428Z,91.25
2018-10-12T06:53:30.934Z,90.40
2018-10-12T06:55:59.472Z,89.14
2018-10-12T06:58:27.995Z,88.77
2018-10-12T07:00:56.547Z,88.01
2018-10-12T07:03:25.711Z,87.32
2018-10-12T07:05:53.789Z,86.45
2018-10-12T07:08:22.315Z,86.16
2018-10-12T07:10:50.866Z,85.38
2018-10-12T07:13:19.385Z,85.52
2018-10-12T07:15:47.924Z,84.12
2018-10-12T07:18:16.437Z,83.74
2018-10-12T07:20:44.970Z,82.87
2018-10-12T07:23:13.609Z,82.29
2018-10-12T07:25:42.199Z,82.03
2018-10-12T07:28:10.686Z,81.56
2018-10-12T07:30:39.226Z,82.17
2018-10-12T07:33:07.748Z,81.61
2018-10-12T07:35:36.301Z,79.90
2018-10-12T07:38:04.817Z,79.72
2018-10-12T07:40:33.360Z,78.67
2018-10-12T07:43:01.878Z,79.29
2018-10-12T07:45:30.373Z,78.09
2018-10-12T07:47:58.903Z,78.88
2018-10-12T07:50:27.499Z,77.05
2018-10-12T07:52:56.031Z,76.48
2018-10-12T07:55:24.554Z,76.84
2018-10-12T07:57:53.097Z,76.83
2018-10-12T08:00:21.736Z,77.25
2018-10-12T08:02:50.176Z,76.69
2018-10-12T08:05:18.682Z,75.80
2018-10-12T08:07:47.230Z,75.81
2018-10-12T08:10:15.743Z,75.48
2018-10-12T08:12:44.274Z,73.25
2018-10-12T08:15:12.796Z,72.46
2018-10-12T08:17:41.383Z,72.53
2018-10-12T08:20:10.354Z,72.23
2018-10-12T08:22:38.879Z,72.52
2018-10-12T08:25:07.429Z,72.83
2018-10-12T08:27:35.985Z,71.87
2018-10-12T08:30:04.553Z,71.93
2018-10-12T08:32:33.121Z,70.66
2018-10-12T08:35:01.644Z,69.80
2018-10-12T08:37:30.165Z,70.19
2018-10-12T08:39:58.671Z,69.25
2018-10-12T08:42:27.231Z,67.69
2018-10-12T08:44:55.753Z,69.05
2018-10-12T08:47:24.306Z,68.89
2018-10-12T08:49:52.821Z,67.12
2018-10-12T08:52:21.397Z,67.80
2018-10-12T08:54:49.918Z,67.23
2018-10-12T08:57:18.438Z,66.93
2018-10-12T08:59:46.983Z,65.38
2018-10-12T09:02:15.502Z,64.06
2018-10-12T09:04:44.043Z,64.47
2018-10-12T09:07:12.547Z,64.08
2018-10-12T09:09:41.082Z,64.14
2018-10-12T09:12:09.631Z,63.98
2018-10-12T09:14:38.175Z,63.99
2018-10-12T09:17:06.990Z,63.75
2018-10-12T09:19:35.540Z,63.06
2018-10-12T09:22:04.078Z,63.44
2018-10-12T09:24:32.706Z,62.24
2018-10-12T09:27:01.246Z,62.49
2018-10-12T09:29:29.788Z,61.90
2018-10-12T09:31:58.311Z,61.39
2018-10-12T09:34:26.875Z,61.40
2018-10-12T09:36:55.433Z,60.93
2018-10-12T09:39:23.962Z,61.01
2018-10-12T09:41:52.493Z,61.46
2018-10-12T09:44:21.029Z,60.47
2018-10-12T09:46:50.074Z,60.71
2018-10-12T09:49:18.633Z,59.88
2018-10-12T09:51:47.161Z,60.56
2018-10-12T09:54:15.711Z,60.22
2018-10-12T09:56:48.365Z,59.36
2018-10-12T09:59:16.914Z,59.24
2018-10-12T10:01:50.810Z,58.88
2018-10-12T10:04:23.434Z,59.02
2018-10-12T10:06:51.962Z,59.00
2018-10-12T10:09:20.500Z,59.47
2018-10-12T10:11:49.400Z,59.04
2018-10-12T10:14:17.589Z,59.33
2018-10-12T10:16:46.129Z,60.17
2018-10-12T10:19:14.858Z,59.03
2018-10-12T10:21:43.417Z,59.58
2018-10-12T10:24:11.959Z,57.99
2018-10-12T10:26:40.499Z,59.74
2018-10-12T10:29:09.091Z,59.15
2018-10-12T10:31:37.681Z,58.02
2018-10-12T10:34:06.246Z,58.15
2018-10-12T10:36:34.812Z,58.94
2018-10-12T10:39:03.852Z,60.27
2018-10-12T10:41:32.387Z,60.31
2018-10-12T10:44:00.903Z,60.46
2018-10-12T10:46:29.594Z,58.54
2018-10-12T10:48:58.067Z,57.82
2018-10-12T10:51:26.632Z,58.24
2018-10-12T10:53:55.158Z,58.46
2018-10-12T10:56:23.710Z,57.66
2018-10-12T10:58:52.213Z,57.63
2018-10-12T11:01:20.761Z,57.32
2018-10-12T11:03:49.274Z,57.24
2018-10-12T11:06:17.864Z,57.52
2018-10-12T11:08:46.349Z,58.25
2018-10-12T11:11:14.955Z,57.36
2018-10-12T11:13:43.474Z,57.40
2018-10-12T11:16:11.983Z,56.80
2018-10-12T11:18:40.524Z,56.98
2018-10-12T11:21:09.042Z,57.44
2018-10-12T11:23:37.553Z,57.44
2018-10-12T11:26:06.105Z,57.23
2018-10-12T11:28:34.646Z,56.65
2018-10-12T11:31:03.146Z,56.87
2018-10-12T11:33:31.976Z,56.46
2018-10-12T11:36:00.264Z,56.96
2018-10-12T11:38:28.808Z,56.52
2018-10-12T11:40:57.331Z,56.35
2018-10-12T11:43:31.140Z,55.67
2018-10-12T11:46:00.615Z,56.87
2018-10-12T11:48:29.173Z,56.79
2018-10-12T11:50:58.028Z,55.99
2018-10-12T11:53:26.578Z,56.72
2018-10-12T11:55:55.145Z,57.78
2018-10-12T11:58:24.058Z,56.61
2018-10-12T12:00:52.646Z,57.33
2018-10-12T12:03:21.228Z,56.16
2018-10-12T12:05:49.740Z,56.21
2018-10-12T12:08:18.240Z,55.72
2018-10-12T12:10:46.786Z,54.76
2018-10-12T12:13:15.316Z,55.10
2018-10-12T12:15:43.866Z,55.99
2018-10-12T12:18:12.416Z,55.16
2018-10-12T12:20:40.946Z,54.66
2018-10-12T12:23:09.455Z,54.29
2018-10-12T12:25:38.002Z,54.64
2018-10-12T12:28:06.656Z,54.61
2018-10-12T12:30:35.183Z,54.58
2018-10-12T12:33:03.700Z,54.83
2018-10-12T12:35:32.561Z,54.45
2018-10-12T12:38:00.786Z,54.61
2018-10-12T12:40:29.330Z,55.07
2018-10-12T12:42:57.843Z,55.83
2018-10-12T12:45:26.368Z,56.33
2018-10-12T12:47:55.055Z,56.10
2018-10-12T12:50:23.456Z,54.57
2018-10-12T12:52:51.977Z,54.09
2018-10-12T12:55:20.611Z,54.17
2018-10-12T12:57:49.120Z,53.99
2018-10-12T13:00:17.725Z,53.93
2018-10-12T13:02:46.188Z,54.49
2018-10-12T13:05:14.710Z,54.63
2018-10-12T13:07:43.229Z,54.29
2018-10-12T13:10:11.741Z,54.74
2018-10-12T13:12:40.245Z,55.26
2018-10-12T13:15:08.797Z,53.87
2018-10-12T13:17:37.286Z,54.01
2018-10-12T13:20:05.853Z,53.93
2018-10-12T13:22:34.378Z,54.01
2018-10-12T13:25:02.903Z,54.40
2018-10-12T13:27:31.417Z,53.64
2018-10-12T13:29:59.964Z,54.40
2018-10-12T13:32:28.489Z,54.23
2018-10-12T13:34:57.058Z,53.38
2018-10-12T13:37:25.645Z,53.55
2018-10-12T13:39:54.208Z,53.51
2018-10-12T13:42:22.752Z,53.77
2018-10-12T13:44:51.298Z,53.40
2018-10-12T13:47:19.973Z,54.07
2018-10-12T13:49:48.534Z,53.16
2018-10-12T13:52:17.042Z,53.83
2018-10-12T13:54:45.566Z,53.85
2018-10-12T13:57:14.077Z,53.37
2018-10-12T13:59:42.604Z,53.55
2018-10-12T14:02:11.113Z,53.75
2018-10-12T14:04:39.633Z,53.56
2018-10-12T14:07:08.128Z,53.81
2018-10-12T14:09:36.661Z,52.77
2018-10-12T14:12:05.181Z,53.51
2018-10-12T14:14:33.702Z,54.05
2018-10-12T14:17:02.218Z,53.34
2018-10-12T14:19:30.813Z,53.28
2018-10-12T14:21:59.283Z,53.64
2018-10-12T14:24:27.781Z,52.86
2018-10-12T14:26:56.364Z,53.07
2018-10-12T14:29:24.832Z,53.29
2018-10-12T14:31:53.362Z,53.77
2018-10-12T14:34:21.883Z,54.35
2018-10-12T14:36:50.417Z,53.90
2018-10-12T14:39:18.913Z,53.42
2018-10-12T14:41:47.441Z,54.19
2018-10-12T14:44:16.135Z,54.11
2018-10-12T14:46:44.511Z,53.89
2018-10-12T14:49:13.016Z,54.16
2018-10-12T14:51:41.586Z,54.67
2018-10-12T14:54:10.089Z,53.88
2018-10-12T14:56:38.704Z,53.82
2018-10-12T14:59:07.260Z,53.83
2018-10-12T15:01:35.812Z,53.94
2018-10-12T15:04:04.553Z,54.29
2018-10-12T15:06:33.102Z,54.60
2018-10-12T15:09:01.629Z,54.67
2018-10-12T15:11:30.203Z,54.81
2018-10-12T15:13:58.712Z,54.81
2018-10-12T15:16:27.250Z,55.11
2018-10-12T15:18:55.793Z,55.91
2018-10-12T15:21:24.557Z,56.08
2018-10-12T15:23:52.870Z,56.23
2018-10-12T15:26:21.394Z,56.48
2018-10-12T15:28:49.944Z,56.71
2018-10-12T15:31:18.479Z,57.31
2018-10-12T15:33:46.992Z,57.48
2018-10-12T15:36:15.531Z,57.84
2018-10-12T15:38:44.094Z,58.37
2018-10-12T15:41:12.777Z,58.55
2018-10-12T15:43:41.304Z,59.20
2018-10-12T15:46:09.863Z,59.88
2018-10-12T15:48:38.398Z,60.02
2018-10-12T15:51:07.000Z,60.56
2018-10-12T15:53:35.480Z,61.01
2018-10-12T15:56:04.043Z,61.23
2018-10-12T15:58:32.563Z,61.38
2018-10-12T16:01:01.111Z,61.53
2018-10-12T16:03:29.634Z,61.85
2018-10-12T16:05:58.190Z,62.27
2018-10-12T16:08:26.700Z,62.64
2018-10-12T16:10:55.258Z,63.15
2018-10-12T16:13:23.816Z,63.66
2018-10-12T16:15:52.340Z,64.20
2018-10-12T16:18:20.863Z,64.60
2018-10-12T16:20:49.376Z,65.68
2018-10-12T16:23:17.924Z,66.09
2018-10-12T16:25:58.942Z,66.77
2018-10-12T16:28:27.475Z,68.28
2018-10-12T16:30:56.525Z,69.29
2018-10-12T16:33:25.188Z,69.81
2018-10-12T16:35:55.112Z,71.29
2018-10-12T16:38:23.665Z,72.00
2018-10-12T16:40:52.187Z,72.98
2018-10-12T16:43:20.750Z,73.65
2018-10-12T16:45:50.379Z,74.02
2018-10-12T16:48:18.946Z,74.71
2018-10-12T16:50:47.455Z,75.28
2018-10-12T16:53:16.056Z,76.16
2018-10-12T16:55:44.575Z,77.13
2018-10-12T16:58:14.178Z,77.73
2018-10-12T17:00:42.921Z,78.82
2018-10-12T17:03:11.570Z,79.97
2018-10-12T17:05:40.100Z,81.34
2018-10-12T17:08:08.638Z,82.00
2018-10-12T17:10:37.280Z,82.80
2018-10-12T17:13:05.930Z,82.83
2018-10-12T17:15:34.447Z,83.13
2018-10-12T17:18:02.993Z,83.90
2018-10-12T17:20:31.501Z,83.68
2018-10-12T17:23:00.054Z,83.21
2018-10-12T17:25:28.574Z,83.37
2018-10-12T17:27:57.105Z,83.12
2018-10-12T17:30:25.788Z,83.21
2018-10-12T17:32:54.320Z,83.14
2018-10-12T17:35:22.864Z,82.75
2018-10-12T17:37:51.400Z,83.55
2018-10-12T17:40:19.891Z,85.16
2018-10-12T17:42:48.429Z,86.27
2018-10-12T17:45:16.962Z,87.38
2018-10-12T17:47:45.522Z,87.63
2018-10-12T17:50:14.030Z,87.91
2018-10-12T17:52:42.568Z,87.53
2018-10-12T17:55:11.077Z,87.61
2018-10-12T17:57:39.625Z,87.84
2018-10-12T18:00:09.329Z,87.79
2018-10-12T18:02:38.019Z,87.87
2018-10-12T18:05:06.900Z,87.98
2018-10-12T18:07:35.453Z,88.36
2018-10-12T18:10:04.059Z,88.50
2018-10-12T18:12:32.588Z,88.23
2018-10-12T18:15:01.103Z,88.33
2018-10-12T18:17:29.643Z,87.62
2018-10-12T18:19:58.146Z,87.63
2018-10-12T18:22:26.694Z,88.86
2018-10-12T18:24:55.201Z,90.48
2018-10-12T18:27:23.703Z,91.07
2018-10-12T18:29:52.240Z,92.13
2018-10-12T18:32:20.737Z,93.30
2018-10-12T18:34:49.298Z,92.93
2018-10-12T18:37:17.814Z,92.97
2018-10-12T18:39:46.347Z,92.92
2018-10-12T18:42:14.853Z,92.66
2018-10-12T18:44:43.403Z,92.82
2018-10-12T18:47:11.925Z,92.91
2018-10-12T18:49:40.461Z,93.21
2018-10-12T18:52:09.281Z,93.57
2018-10-12T18:54:37.807Z,93.22
2018-10-12T18:57:06.319Z,92.35
2018-10-12T18:59:34.862Z,92.06
2018-10-12T19:02:03.397Z,91.49
2018-10-12T19:04:32.389Z,92.12
2018-10-12T19:07:00.865Z,92.06
2018-10-12T19:09:29.405Z,93.21
2018-10-12T19:11:57.927Z,94.87
2018-10-12T19:14:26.494Z,94.87
2018-10-12T19:16:55.082Z,94.33
2018-10-12T19:19:23.676Z,95.50
2018-10-12T19:21:52.210Z,96.69
2018-10-12T19:24:20.766Z,96.91
2018-10-12T19:26:49.276Z,96.52
2018-10-12T19:29:17.807Z,96.70
2018-10-12T19:31:46.329Z,96.76
2018-10-12T19:34:14.930Z,96.02
2018-10-12T19:36:43.451Z,95.37
2018-10-12T19:39:11.977Z,95.67
2018-10-12T19:41:40.487Z,96.37
2018-10-12T19:44:09.736Z,97.40
2018-10-12T19:46:38.252Z,97.96
2018-10-12T19:49:06.785Z,97.90
2018-10-12T19:51:35.300Z,97.18
2018-10-12T19:54:03.867Z,97.26
2018-10-12T19:56:32.378Z,97.33
2018-10-12T19:59:00.938Z,97.40
2018-10-12T20:01:29.463Z,98.28
2018-10-12T20:03:58.010Z,98.80
2018-10-12T20:06:26.526Z,98.72
2018-10-12T20:08:55.058Z,98.39
2018-10-12T20:11:23.574Z,97.73
2018-10-12T20:13:52.104Z,98.73
2018-10-12T20:16:20.614Z,99.10
2018-10-12T20:18:49.164Z,99.41
2018-10-12T20:21:17.750Z,100.00
2018-10-12T20:23:46.294Z,100.00
2018-10-12T20:26:14.818Z,100.00
2018-10-12T20:28:43.355Z,100.00
2018-10-12T20:31:11.926Z,100.00
2018-10-12T20:33:40.438Z,99.94
2018-10-12T20:36:08.973Z,99.66
2018-10-12T20:38:37.569Z,99.37
2018-10-12T20:41:06.139Z,100.00
2018-10-12T20:43:34.679Z,100.00
2018-10-12T20:46:03.224Z,100.00
2018-10-12T20:48:31.766Z,100.00
2018-10-12T20:51:00.278Z,100.00
2018-10-12T20:53:28.816Z,100.00
2018-10-12T20:55:57.366Z,100.00
2018-10-12T20:58:25.908Z,100.00
2018-10-12T21:00:54.429Z,100.00
2018-10-12T21:03:22.976Z,100.00
2018-10-12T21:05:51.495Z,100.00
2018-10-12T21:08:20.010Z,100.00
2018-10-12T21:10:48.564Z,100.00
2018-10-12T21:13:17.068Z,100.00
2018-10-12T21:15:45.589Z,100.00
2018-10-12T21:18:14.144Z,100.00
2018-10-12T21:20:42.675Z,100.00
2018-10-12T21:23:11.174Z,99.78
2018-10-12T21:25:39.681Z,99.79
2018-10-12T21:28:08.223Z,100.00
2018-10-12T21:30:36.764Z,100.00
2018-10-12T21:33:05.267Z,100.00
2018-10-12T21:35:33.809Z,100.00
2018-10-12T21:38:02.344Z,100.00
2018-10-12T21:40:30.906Z,100.00
2018-10-12T21:42:59.423Z,100.00
2018-10-12T21:45:27.966Z,100.00
2018-10-12T21:47:56.692Z,100.00
2018-10-12T21:50:25.275Z,100.00
2018-10-12T21:52:53.796Z,100.00
2018-10-12T21:55:22.332Z,100.00
2018-10-12T21:57:50.838Z,100.00
2018-10-12T22:00:19.396Z,100.00
2018-10-12T22:02:47.910Z,100.00
2018-10-12T22:05:16.447Z,100.00
2018-10-12T22:07:44.964Z,100.00
2018-10-12T22:10:13.510Z,100.00
2018-10-12T22:12:42.096Z,100.00
2018-10-12T22:15:10.636Z,100.00
2018-10-12T22:17:39.140Z,100.00
2018-10-12T22:20:07.709Z,100.00
2018-10-12T22:22:36.223Z,100.00
2018-10-12T22:25:04.818Z,100.00
2018-10-12T22:27:33.328Z,100.00
2018-10-12T22:30:01.867Z,100.00
2018-10-12T22:32:30.399Z,100.00
2018-10-12T22:34:58.972Z,100.00
2018-10-12T22:37:27.515Z,100.00
2018-10-12T22:39:56.079Z,100.00
2018-10-12T22:42:24.589Z,100.00
2018-10-12T22:44:53.134Z,100.00
2018-10-12T22:47:21.649Z,100.00
2018-10-12T22:49:50.306Z,100.00
2018-10-12T22:52:18.838Z,100.00
2018-10-12T22:54:47.376Z,100.00
2018-10-12T22:57:15.917Z,100.00
2018-10-12T22:59:44.462Z,100.00
2018-10-12T23:02:12.989Z,100.00
2018-10-12T23:04:41.511Z,100.00
2018-10-12T23:07:10.056Z,100.00
2018-10-12T23:09:38.568Z,100.00
2018-10-12T23:12:07.118Z,100.00
2018-10-12T23:14:35.626Z,100.00
2018-10-12T23:17:04.178Z,100.00
2018-10-12T23:19:32.690Z,100.00
2018-10-12T23:22:01.251Z,100.00
2018-10-12T23:24:29.778Z,100.00
2018-10-12T23:26:58.365Z,100.00
2018-10-12T23:29:26.941Z,100.00
2018-10-12T23:31:55.477Z,100.00
2018-10-12T23:34:24.018Z,100.00
2018-10-12T23:36:52.577Z,100.00
2018-10-12T23:39:21.095Z,100.00
2018-10-12T23:41:49.636Z,100.00
2018-10-12T23:44:18.145Z,100.00
2018-10-12T23:46:46.685Z,100.00
2018-10-12T23:49:15.215Z,100.00
2018-10-12T23:51:43.751Z,100.00
2018-10-12T23:54:12.269Z,100.00
2018-10-12T23:56:40.822Z,100.00
2018-10-12T23:59:09.342Z,100.00
